Seattle, WA (98118)

8:41 PM PDT on August 27, 2016 (GMT -0700)
| | Change Station

Elev -9999 ft 0.00 °N, 0.00 °E | Updated

Mostly Cloudy
Mostly Cloudy
64 °F
Feels Like 64 °F
N
6
Wind Variable Wind from SSW
Gusts 10 mph

Today
High -- | Low -- °F
--% Chance of Precip.
Yesterday
High -- | Low -- °F
Precip. -- in
Pressure 29.92 in
Visibility 10.0 miles
Clouds Scattered Clouds 4200 ft
Mostly Cloudy 20000 ft
Dew Point 54 °F
Humidity 70%
Rainfall --
Snow Depth Not available.
6:21 AM 7:57 PM
Waning Crescent, 19% visible
METAR KBFI 280253Z 20009KT 10SM SCT042 BKN200 19/13 A2992 RMK AO2 SLP130 T01890128 51007 $
Pressure 29.92 in
Visibility 10.0 miles
Clouds Scattered Clouds 4200 ft
Mostly Cloudy 20000 ft
Dew Point 54 °F
Humidity 70%
Rainfall --
Snow Depth Not available.
6:21 AM 7:57 PM
Waning Crescent, 19% visible
METAR KBFI 280253Z 20009KT 10SM SCT042 BKN200 19/13 A2992 RMK AO2 SLP130 T01890128 51007 $

10-Day Weather Forecast

Almanac

Astronomy

Aug. 27, 2016 Rise Set
Actual Time
Civil Twilight
Nautical Twilight
Astronomical Twilight
Moon
Length of Visible Light
Length of Day
Tomorrow will be .
, % of the Moon is Illuminated

Today's Extremes

State Highs State Lows

Community

WunderPhotos

Upload Photos

1,935,519 photos uploaded!

WunderBlog® & News

Nearby

Air Quality

  Air Quality AQ Index Pollutant
Not available.

Snow Depth

Station Depth Elevation

Earthquake Activity

City Distance Mag. Time & Date
Minimum magnitude displayed is 2.5.

Coastal Water Temperatures

Place Temperature

Stations

Nearby Weather Stations

Station Location Temp. Windchill Dew Point Humidity Wind Precip. Elev Updated Type
                   

Watches & Warnings

There are currently no watches in effect.